sensor_id;sensor_type;location;lat;lon;timestamp;P1;durP1;ratioP1;P2;durP2;ratioP2
6358;SDS011;3212;51.460;11.868;2023-04-24T00:02:32;2.47;;;2.20;;
6358;SDS011;3212;51.460;11.868;2023-04-24T00:05:54;2.00;;;1.90;;
6358;SDS011;3212;51.460;11.868;2023-04-24T00:09:16;1.97;;;1.80;;
6358;SDS011;3212;51.460;11.868;2023-04-24T00:12:38;1.60;;;1.40;;
6358;SDS011;3212;51.460;11.868;2023-04-24T00:16:01;2.00;;;1.20;;
6358;SDS011;3212;51.460;11.868;2023-04-24T00:19:23;4.43;;;2.07;;
6358;SDS011;3212;51.460;11.868;2023-04-24T00:22:45;3.07;;;1.40;;
6358;SDS011;3212;51.460;11.868;2023-04-24T00:26:07;1.63;;;1.30;;
6358;SDS011;3212;51.460;11.868;2023-04-24T00:29:30;1.27;;;1.13;;
6358;SDS011;3212;51.460;11.868;2023-04-24T00:32:54;2.30;;;1.37;;
6358;SDS011;3212;51.460;11.868;2023-04-24T00:36:16;1.37;;;1.27;;
6358;SDS011;3212;51.460;11.868;2023-04-24T00:39:38;1.50;;;1.40;;
6358;SDS011;3212;51.460;11.868;2023-04-24T00:43:00;1.77;;;1.27;;
6358;SDS011;3212;51.460;11.868;2023-04-24T00:46:21;1.30;;;1.20;;
6358;SDS011;3212;51.460;11.868;2023-04-24T00:49:43;1.50;;;1.40;;
6358;SDS011;3212;51.460;11.868;2023-04-24T00:53:05;1.53;;;1.10;;
6358;SDS011;3212;51.460;11.868;2023-04-24T00:56:27;1.20;;;1.10;;
6358;SDS011;3212;51.460;11.868;2023-04-24T00:59:50;1.20;;;1.00;;
6358;SDS011;3212;51.460;11.868;2023-04-24T01:03:11;1.57;;;1.00;;
6358;SDS011;3212;51.460;11.868;2023-04-24T01:06:33;2.97;;;1.10;;
6358;SDS011;3212;51.460;11.868;2023-04-24T01:09:56;0.87;;;0.87;;
6358;SDS011;3212;51.460;11.868;2023-04-24T01:13:18;2.27;;;1.10;;
6358;SDS011;3212;51.460;11.868;2023-04-24T01:16:40;2.30;;;1.00;;
6358;SDS011;3212;51.460;11.868;2023-04-24T01:20:02;3.10;;;0.83;;
6358;SDS011;3212;51.460;11.868;2023-04-24T01:23:25;2.10;;;1.03;;
6358;SDS011;3212;51.460;11.868;2023-04-24T01:26:47;3.40;;;1.10;;
6358;SDS011;3212;51.460;11.868;2023-04-24T01:30:11;1.63;;;1.20;;
6358;SDS011;3212;51.460;11.868;2023-04-24T01:33:35;0.90;;;0.90;;
6358;SDS011;3212;51.460;11.868;2023-04-24T01:36:58;1.53;;;1.10;;
6358;SDS011;3212;51.460;11.868;2023-04-24T01:40:19;4.07;;;1.20;;
6358;SDS011;3212;51.460;11.868;2023-04-24T01:43:41;3.50;;;1.43;;
6358;SDS011;3212;51.460;11.868;2023-04-24T01:47:03;2.43;;;1.43;;
6358;SDS011;3212;51.460;11.868;2023-04-24T01:50:25;1.70;;;1.20;;
6358;SDS011;3212;51.460;11.868;2023-04-24T01:53:49;1.60;;;1.43;;
6358;SDS011;3212;51.460;11.868;2023-04-24T01:57:11;2.03;;;1.00;;
6358;SDS011;3212;51.460;11.868;2023-04-24T02:00:32;2.07;;;1.20;;
6358;SDS011;3212;51.460;11.868;2023-04-24T02:03:55;1.73;;;1.20;;
6358;SDS011;3212;51.460;11.868;2023-04-24T02:07:17;1.53;;;1.30;;
6358;SDS011;3212;51.460;11.868;2023-04-24T02:10:39;1.83;;;1.50;;
6358;SDS011;3212;51.460;11.868;2023-04-24T02:14:01;1.23;;;1.00;;
6358;SDS011;3212;51.460;11.868;2023-04-24T02:17:23;2.10;;;1.13;;
6358;SDS011;3212;51.460;11.868;2023-04-24T02:20:47;1.63;;;1.27;;
6358;SDS011;3212;51.460;11.868;2023-04-24T02:24:09;1.40;;;1.27;;
6358;SDS011;3212;51.460;11.868;2023-04-24T02:27:30;1.87;;;1.40;;
6358;SDS011;3212;51.460;11.868;2023-04-24T02:30:52;2.20;;;1.37;;
6358;SDS011;3212;51.460;11.868;2023-04-24T02:34:15;1.77;;;1.50;;
6358;SDS011;3212;51.460;11.868;2023-04-24T02:37:37;2.00;;;1.30;;
6358;SDS011;3212;51.460;11.868;2023-04-24T02:40:59;2.97;;;1.27;;
6358;SDS011;3212;51.460;11.868;2023-04-24T02:44:21;2.60;;;1.40;;
6358;SDS011;3212;51.460;11.868;2023-04-24T02:47:43;1.70;;;1.60;;
6358;SDS011;3212;51.460;11.868;2023-04-24T02:51:05;1.67;;;1.30;;
6358;SDS011;3212;51.460;11.868;2023-04-24T02:54:27;1.70;;;1.33;;
6358;SDS011;3212;51.460;11.868;2023-04-24T02:57:48;1.40;;;1.30;;
6358;SDS011;3212;51.460;11.868;2023-04-24T03:01:11;1.23;;;1.13;;
6358;SDS011;3212;51.460;11.868;2023-04-24T03:04:33;1.50;;;1.40;;
6358;SDS011;3212;51.460;11.868;2023-04-24T03:07:55;4.07;;;1.37;;
6358;SDS011;3212;51.460;11.868;2023-04-24T03:14:54;1.37;;;1.00;;
6358;SDS011;3212;51.460;11.868;2023-04-24T03:18:18;2.28;;;1.50;;
6358;SDS011;3212;51.460;11.868;2023-04-24T03:21:42;1.50;;;1.40;;
6358;SDS011;3212;51.460;11.868;2023-04-24T03:25:04;1.60;;;1.37;;
6358;SDS011;3212;51.460;11.868;2023-04-24T03:28:26;1.90;;;1.40;;
6358;SDS011;3212;51.460;11.868;2023-04-24T03:31:49;2.20;;;1.40;;
6358;SDS011;3212;51.460;11.868;2023-04-24T03:35:12;1.47;;;1.37;;
6358;SDS011;3212;51.460;11.868;2023-04-24T03:38:34;1.70;;;1.60;;
6358;SDS011;3212;51.460;11.868;2023-04-24T03:41:55;1.80;;;1.70;;
6358;SDS011;3212;51.460;11.868;2023-04-24T03:45:17;2.10;;;1.57;;
6358;SDS011;3212;51.460;11.868;2023-04-24T03:48:39;2.43;;;1.63;;
6358;SDS011;3212;51.460;11.868;2023-04-24T03:52:01;3.53;;;1.50;;
6358;SDS011;3212;51.460;11.868;2023-04-24T03:55:24;1.60;;;1.50;;
6358;SDS011;3212;51.460;11.868;2023-04-24T03:58:46;1.80;;;1.70;;
6358;SDS011;3212;51.460;11.868;2023-04-24T04:02:08;1.60;;;1.50;;
6358;SDS011;3212;51.460;11.868;2023-04-24T04:05:31;2.25;;;1.50;;
6358;SDS011;3212;51.460;11.868;2023-04-24T04:08:53;1.43;;;1.33;;
6358;SDS011;3212;51.460;11.868;2023-04-24T04:12:15;2.03;;;1.60;;
6358;SDS011;3212;51.460;11.868;2023-04-24T04:15:37;2.07;;;1.80;;
6358;SDS011;3212;51.460;11.868;2023-04-24T04:19:00;1.67;;;1.57;;
6358;SDS011;3212;51.460;11.868;2023-04-24T04:22:22;1.47;;;1.20;;
6358;SDS011;3212;51.460;11.868;2023-04-24T04:25:44;1.50;;;1.40;;
6358;SDS011;3212;51.460;11.868;2023-04-24T04:29:07;2.93;;;1.50;;
6358;SDS011;3212;51.460;11.868;2023-04-24T04:32:28;4.70;;;1.40;;
6358;SDS011;3212;51.460;11.868;2023-04-24T04:35:51;1.62;;;1.52;;
6358;SDS011;3212;51.460;11.868;2023-04-24T04:39:13;1.50;;;1.40;;
6358;SDS011;3212;51.460;11.868;2023-04-24T04:42:36;2.07;;;1.40;;
6358;SDS011;3212;51.460;11.868;2023-04-24T04:45:58;3.43;;;1.97;;
6358;SDS011;3212;51.460;11.868;2023-04-24T04:49:20;1.87;;;1.70;;
6358;SDS011;3212;51.460;11.868;2023-04-24T04:52:42;1.90;;;1.53;;
6358;SDS011;3212;51.460;11.868;2023-04-24T04:56:04;1.50;;;1.40;;
6358;SDS011;3212;51.460;11.868;2023-04-24T04:59:27;1.87;;;1.70;;
6358;SDS011;3212;51.460;11.868;2023-04-24T05:02:49;1.90;;;1.80;;
6358;SDS011;3212;51.460;11.868;2023-04-24T05:06:10;2.27;;;1.70;;
6358;SDS011;3212;51.460;11.868;2023-04-24T05:09:34;1.80;;;1.70;;
6358;SDS011;3212;51.460;11.868;2023-04-24T05:12:56;2.20;;;1.60;;
6358;SDS011;3212;51.460;11.868;2023-04-24T05:16:18;2.27;;;1.50;;
6358;SDS011;3212;51.460;11.868;2023-04-24T05:19:41;1.70;;;1.60;;
6358;SDS011;3212;51.460;11.868;2023-04-24T05:23:03;2.97;;;2.07;;
6358;SDS011;3212;51.460;11.868;2023-04-24T05:26:24;2.80;;;1.90;;
6358;SDS011;3212;51.460;11.868;2023-04-24T05:29:47;2.10;;;1.90;;
6358;SDS011;3212;51.460;11.868;2023-04-24T05:33:09;3.75;;;1.75;;
6358;SDS011;3212;51.460;11.868;2023-04-24T05:36:33;2.07;;;1.80;;
6358;SDS011;3212;51.460;11.868;2023-04-24T05:39:54;2.00;;;1.83;;
6358;SDS011;3212;51.460;11.868;2023-04-24T05:43:16;1.67;;;1.57;;
6358;SDS011;3212;51.460;11.868;2023-04-24T05:46:38;2.23;;;1.80;;
6358;SDS011;3212;51.460;11.868;2023-04-24T05:50:02;1.87;;;1.67;;
6358;SDS011;3212;51.460;11.868;2023-04-24T05:53:25;2.07;;;1.43;;
6358;SDS011;3212;51.460;11.868;2023-04-24T05:56:48;1.43;;;1.33;;
6358;SDS011;3212;51.460;11.868;2023-04-24T06:00:09;1.40;;;1.30;;
6358;SDS011;3212;51.460;11.868;2023-04-24T06:03:32;1.93;;;1.23;;
6358;SDS011;3212;51.460;11.868;2023-04-24T06:06:54;0.90;;;0.90;;
6358;SDS011;3212;51.460;11.868;2023-04-24T06:10:18;1.97;;;1.20;;
6358;SDS011;3212;51.460;11.868;2023-04-24T06:13:40;1.23;;;1.13;;
6358;SDS011;3212;51.460;11.868;2023-04-24T06:17:02;2.50;;;1.10;;
6358;SDS011;3212;51.460;11.868;2023-04-24T06:20:25;1.43;;;1.30;;
6358;SDS011;3212;51.460;11.868;2023-04-24T06:23:47;2.43;;;1.10;;
6358;SDS011;3212;51.460;11.868;2023-04-24T06:27:09;1.70;;;1.30;;
6358;SDS011;3212;51.460;11.868;2023-04-24T06:30:31;4.27;;;1.10;;
6358;SDS011;3212;51.460;11.868;2023-04-24T06:33:53;2.00;;;1.27;;
6358;SDS011;3212;51.460;11.868;2023-04-24T06:37:18;1.30;;;1.20;;
6358;SDS011;3212;51.460;11.868;2023-04-24T06:40:40;3.73;;;1.30;;
6358;SDS011;3212;51.460;11.868;2023-04-24T06:44:02;1.37;;;1.20;;
6358;SDS011;3212;51.460;11.868;2023-04-24T06:47:24;1.80;;;1.13;;
6358;SDS011;3212;51.460;11.868;2023-04-24T06:50:46;5.97;;;1.20;;
6358;SDS011;3212;51.460;11.868;2023-04-24T06:54:08;1.50;;;1.20;;
6358;SDS011;3212;51.460;11.868;2023-04-24T06:57:30;2.50;;;1.40;;
6358;SDS011;3212;51.460;11.868;2023-04-24T07:00:53;2.20;;;1.20;;
6358;SDS011;3212;51.460;11.868;2023-04-24T07:04:15;1.30;;;1.20;;
6358;SDS011;3212;51.460;11.868;2023-04-24T07:07:36;3.67;;;1.50;;
6358;SDS011;3212;51.460;11.868;2023-04-24T07:10:59;1.40;;;1.30;;
6358;SDS011;3212;51.460;11.868;2023-04-24T07:14:21;1.87;;;1.40;;
6358;SDS011;3212;51.460;11.868;2023-04-24T07:17:46;5.40;;;1.70;;
6358;SDS011;3212;51.460;11.868;2023-04-24T07:21:07;1.40;;;1.23;;
6358;SDS011;3212;51.460;11.868;2023-04-24T07:24:30;3.60;;;1.00;;
6358;SDS011;3212;51.460;11.868;2023-04-24T07:27:51;1.77;;;1.30;;
6358;SDS011;3212;51.460;11.868;2023-04-24T07:31:13;2.90;;;1.20;;
6358;SDS011;3212;51.460;11.868;2023-04-24T07:34:37;1.90;;;1.37;;
6358;SDS011;3212;51.460;11.868;2023-04-24T07:38:01;1.20;;;1.10;;
6358;SDS011;3212;51.460;11.868;2023-04-24T07:41:23;1.67;;;1.10;;
6358;SDS011;3212;51.460;11.868;2023-04-24T07:44:45;1.67;;;1.20;;
6358;SDS011;3212;51.460;11.868;2023-04-24T07:48:07;1.17;;;1.07;;
6358;SDS011;3212;51.460;11.868;2023-04-24T07:51:28;1.10;;;1.00;;
6358;SDS011;3212;51.460;11.868;2023-04-24T07:54:50;1.27;;;1.03;;
6358;SDS011;3212;51.460;11.868;2023-04-24T07:58:12;1.00;;;0.90;;
6358;SDS011;3212;51.460;11.868;2023-04-24T08:01:35;3.27;;;1.00;;
6358;SDS011;3212;51.460;11.868;2023-04-24T08:04:57;2.40;;;1.10;;
6358;SDS011;3212;51.460;11.868;2023-04-24T08:08:21;3.63;;;1.10;;
6358;SDS011;3212;51.460;11.868;2023-04-24T08:11:40;1.57;;;1.40;;
6358;SDS011;3212;51.460;11.868;2023-04-24T08:15:04;1.00;;;0.90;;
6358;SDS011;3212;51.460;11.868;2023-04-24T08:18:27;2.10;;;1.23;;
6358;SDS011;3212;51.460;11.868;2023-04-24T08:21:49;1.43;;;1.20;;
6358;SDS011;3212;51.460;11.868;2023-04-24T08:25:10;1.40;;;1.30;;
6358;SDS011;3212;51.460;11.868;2023-04-24T08:28:32;1.60;;;1.13;;
6358;SDS011;3212;51.460;11.868;2023-04-24T08:31:54;1.73;;;1.30;;
6358;SDS011;3212;51.460;11.868;2023-04-24T08:35:17;1.50;;;1.40;;
6358;SDS011;3212;51.460;11.868;2023-04-24T08:38:42;7.83;;;1.37;;
6358;SDS011;3212;51.460;11.868;2023-04-24T08:42:04;3.87;;;1.20;;
6358;SDS011;3212;51.460;11.868;2023-04-24T08:45:27;1.13;;;1.03;;
6358;SDS011;3212;51.460;11.868;2023-04-24T08:48:48;1.30;;;1.00;;
6358;SDS011;3212;51.460;11.868;2023-04-24T08:52:10;1.37;;;1.20;;
6358;SDS011;3212;51.460;11.868;2023-04-24T08:55:32;1.60;;;1.10;;
6358;SDS011;3212;51.460;11.868;2023-04-24T08:58:54;0.97;;;0.97;;
6358;SDS011;3212;51.460;11.868;2023-04-24T09:02:16;1.23;;;1.13;;
6358;SDS011;3212;51.460;11.868;2023-04-24T09:05:39;3.20;;;1.10;;
6358;SDS011;3212;51.460;11.868;2023-04-24T09:09:01;0.90;;;0.90;;
6358;SDS011;3212;51.460;11.868;2023-04-24T09:12:23;3.47;;;1.13;;
6358;SDS011;3212;51.460;11.868;2023-04-24T09:15:46;2.80;;;1.10;;
6358;SDS011;3212;51.460;11.868;2023-04-24T09:19:08;1.37;;;1.10;;
6358;SDS011;3212;51.460;11.868;2023-04-24T09:22:30;1.23;;;1.13;;
6358;SDS011;3212;51.460;11.868;2023-04-24T09:25:53;1.57;;;1.27;;
6358;SDS011;3212;51.460;11.868;2023-04-24T09:29:15;3.50;;;1.17;;
6358;SDS011;3212;51.460;11.868;2023-04-24T09:32:37;2.20;;;1.10;;
6358;SDS011;3212;51.460;11.868;2023-04-24T09:35:59;1.27;;;1.03;;
6358;SDS011;3212;51.460;11.868;2023-04-24T09:39:23;1.50;;;1.40;;
6358;SDS011;3212;51.460;11.868;2023-04-24T09:42:50;1.40;;;1.30;;
6358;SDS011;3212;51.460;11.868;2023-04-24T09:46:08;3.70;;;1.40;;
6358;SDS011;3212;51.460;11.868;2023-04-24T09:49:31;4.03;;;1.30;;
6358;SDS011;3212;51.460;11.868;2023-04-24T09:52:56;1.30;;;1.20;;
6358;SDS011;3212;51.460;11.868;2023-04-24T09:56:17;1.23;;;1.13;;
6358;SDS011;3212;51.460;11.868;2023-04-24T09:59:42;1.93;;;1.43;;
6358;SDS011;3212;51.460;11.868;2023-04-24T10:03:05;2.70;;;1.20;;
6358;SDS011;3212;51.460;11.868;2023-04-24T10:06:31;1.40;;;1.30;;
6358;SDS011;3212;51.460;11.868;2023-04-24T10:09:52;2.70;;;1.30;;
6358;SDS011;3212;51.460;11.868;2023-04-24T10:13:14;1.30;;;1.20;;
6358;SDS011;3212;51.460;11.868;2023-04-24T10:16:36;1.67;;;1.40;;
6358;SDS011;3212;51.460;11.868;2023-04-24T10:19:58;1.50;;;1.40;;
6358;SDS011;3212;51.460;11.868;2023-04-24T10:23:20;2.20;;;1.33;;
6358;SDS011;3212;51.460;11.868;2023-04-24T10:26:42;1.30;;;1.20;;
6358;SDS011;3212;51.460;11.868;2023-04-24T10:30:05;8.73;;;1.50;;
6358;SDS011;3212;51.460;11.868;2023-04-24T10:33:29;1.47;;;1.33;;
6358;SDS011;3212;51.460;11.868;2023-04-24T10:36:51;1.30;;;1.20;;
6358;SDS011;3212;51.460;11.868;2023-04-24T10:40:18;2.20;;;1.67;;
6358;SDS011;3212;51.460;11.868;2023-04-24T10:43:40;1.60;;;1.50;;
6358;SDS011;3212;51.460;11.868;2023-04-24T10:47:02;1.43;;;1.33;;
6358;SDS011;3212;51.460;11.868;2023-04-24T10:50:25;1.40;;;1.20;;
6358;SDS011;3212;51.460;11.868;2023-04-24T10:53:47;3.13;;;1.30;;
6358;SDS011;3212;51.460;11.868;2023-04-24T11:00:57;2.70;;;1.20;;
6358;SDS011;3212;51.460;11.868;2023-04-24T11:04:28;1.53;;;1.33;;
6358;SDS011;3212;51.460;11.868;2023-04-24T11:11:15;5.57;;;1.63;;
6358;SDS011;3212;51.460;11.868;2023-04-24T11:18:14;2.87;;;1.37;;
6358;SDS011;3212;51.460;11.868;2023-04-24T11:21:39;1.30;;;1.20;;
6358;SDS011;3212;51.460;11.868;2023-04-24T11:25:06;1.97;;;1.60;;
6358;SDS011;3212;51.460;11.868;2023-04-24T11:28:28;1.40;;;1.30;;
6358;SDS011;3212;51.460;11.868;2023-04-24T11:31:50;2.20;;;1.87;;
6358;SDS011;3212;51.460;11.868;2023-04-24T11:35:15;1.90;;;1.50;;
6358;SDS011;3212;51.460;11.868;2023-04-24T11:38:36;1.50;;;1.40;;
6358;SDS011;3212;51.460;11.868;2023-04-24T11:42:02;1.70;;;1.60;;
6358;SDS011;3212;51.460;11.868;2023-04-24T11:45:25;2.20;;;2.00;;
6358;SDS011;3212;51.460;11.868;2023-04-24T11:48:47;1.97;;;1.87;;
6358;SDS011;3212;51.460;11.868;2023-04-24T11:52:09;1.60;;;1.50;;
6358;SDS011;3212;51.460;11.868;2023-04-24T11:55:30;2.53;;;1.53;;
6358;SDS011;3212;51.460;11.868;2023-04-24T11:58:53;2.00;;;1.80;;
6358;SDS011;3212;51.460;11.868;2023-04-24T12:02:21;1.80;;;1.70;;
6358;SDS011;3212;51.460;11.868;2023-04-24T12:05:43;2.50;;;1.50;;
6358;SDS011;3212;51.460;11.868;2023-04-24T12:09:06;2.57;;;2.00;;
6358;SDS011;3212;51.460;11.868;2023-04-24T12:12:28;1.80;;;1.70;;
6358;SDS011;3212;51.460;11.868;2023-04-24T12:15:50;2.00;;;1.90;;
6358;SDS011;3212;51.460;11.868;2023-04-24T12:19:20;2.37;;;2.17;;
6358;SDS011;3212;51.460;11.868;2023-04-24T12:22:49;2.13;;;1.67;;
6358;SDS011;3212;51.460;11.868;2023-04-24T12:26:10;1.80;;;1.70;;
6358;SDS011;3212;51.460;11.868;2023-04-24T12:29:33;1.87;;;1.67;;
6358;SDS011;3212;51.460;11.868;2023-04-24T12:32:56;1.73;;;1.50;;
6358;SDS011;3212;51.460;11.868;2023-04-24T12:36:17;2.03;;;1.83;;
6358;SDS011;3212;51.460;11.868;2023-04-24T12:39:39;1.80;;;1.70;;
6358;SDS011;3212;51.460;11.868;2023-04-24T12:43:01;3.90;;;1.90;;
6358;SDS011;3212;51.460;11.868;2023-04-24T12:46:24;2.40;;;2.20;;
6358;SDS011;3212;51.460;11.868;2023-04-24T12:49:46;2.40;;;2.20;;
6358;SDS011;3212;51.460;11.868;2023-04-24T12:53:08;2.43;;;1.87;;
6358;SDS011;3212;51.460;11.868;2023-04-24T12:56:30;2.70;;;1.60;;
6358;SDS011;3212;51.460;11.868;2023-04-24T12:59:53;2.07;;;1.23;;
6358;SDS011;3212;51.460;11.868;2023-04-24T13:03:16;2.87;;;1.50;;
6358;SDS011;3212;51.460;11.868;2023-04-24T13:06:38;1.43;;;1.33;;
6358;SDS011;3212;51.460;11.868;2023-04-24T13:10:02;1.77;;;1.57;;
6358;SDS011;3212;51.460;11.868;2023-04-24T13:13:23;1.80;;;1.70;;
6358;SDS011;3212;51.460;11.868;2023-04-24T13:16:46;1.60;;;1.50;;
6358;SDS011;3212;51.460;11.868;2023-04-24T13:20:10;1.70;;;1.60;;
6358;SDS011;3212;51.460;11.868;2023-04-24T13:23:32;1.77;;;1.67;;
6358;SDS011;3212;51.460;11.868;2023-04-24T13:26:53;1.70;;;1.60;;
6358;SDS011;3212;51.460;11.868;2023-04-24T13:30:15;2.33;;;1.93;;
6358;SDS011;3212;51.460;11.868;2023-04-24T13:33:39;1.83;;;1.57;;
6358;SDS011;3212;51.460;11.868;2023-04-24T13:37:00;2.03;;;1.83;;
6358;SDS011;3212;51.460;11.868;2023-04-24T13:40:23;3.47;;;1.45;;
6358;SDS011;3212;51.460;11.868;2023-04-24T13:43:45;2.20;;;1.53;;
6358;SDS011;3212;51.460;11.868;2023-04-24T13:47:07;1.63;;;1.43;;
6358;SDS011;3212;51.460;11.868;2023-04-24T13:50:29;2.12;;;1.75;;
6358;SDS011;3212;51.460;11.868;2023-04-24T13:53:51;1.30;;;1.20;;
6358;SDS011;3212;51.460;11.868;2023-04-24T13:57:13;2.23;;;1.60;;
6358;SDS011;3212;51.460;11.868;2023-04-24T14:00:35;1.67;;;1.58;;
6358;SDS011;3212;51.460;11.868;2023-04-24T14:03:58;1.40;;;1.30;;
6358;SDS011;3212;51.460;11.868;2023-04-24T14:07:20;1.83;;;1.07;;
6358;SDS011;3212;51.460;11.868;2023-04-24T14:10:42;1.07;;;0.97;;
6358;SDS011;3212;51.460;11.868;2023-04-24T14:14:04;1.23;;;0.90;;
6358;SDS011;3212;51.460;11.868;2023-04-24T14:17:25;2.03;;;1.00;;
6358;SDS011;3212;51.460;11.868;2023-04-24T14:20:50;0.80;;;0.80;;
6358;SDS011;3212;51.460;11.868;2023-04-24T14:24:13;0.90;;;0.90;;
6358;SDS011;3212;51.460;11.868;2023-04-24T14:27:35;1.03;;;0.93;;
6358;SDS011;3212;51.460;11.868;2023-04-24T14:30:57;1.67;;;1.03;;
6358;SDS011;3212;51.460;11.868;2023-04-24T14:34:19;1.53;;;0.70;;
6358;SDS011;3212;51.460;11.868;2023-04-24T14:37:42;1.20;;;0.90;;
6358;SDS011;3212;51.460;11.868;2023-04-24T14:41:06;1.87;;;0.80;;
6358;SDS011;3212;51.460;11.868;2023-04-24T14:44:29;2.20;;;0.70;;
6358;SDS011;3212;51.460;11.868;2023-04-24T14:47:51;1.67;;;0.80;;
6358;SDS011;3212;51.460;11.868;2023-04-24T14:51:13;1.03;;;0.80;;
6358;SDS011;3212;51.460;11.868;2023-04-24T14:54:36;0.70;;;0.60;;
6358;SDS011;3212;51.460;11.868;2023-04-24T14:57:58;0.73;;;0.60;;
6358;SDS011;3212;51.460;11.868;2023-04-24T15:01:20;2.07;;;0.60;;
6358;SDS011;3212;51.460;11.868;2023-04-24T15:04:41;0.60;;;0.50;;
6358;SDS011;3212;51.460;11.868;2023-04-24T15:08:04;2.20;;;0.50;;
6358;SDS011;3212;51.460;11.868;2023-04-24T15:11:25;0.50;;;0.50;;
6358;SDS011;3212;51.460;11.868;2023-04-24T15:14:49;0.80;;;0.70;;
6358;SDS011;3212;51.460;11.868;2023-04-24T15:18:11;1.83;;;0.50;;
6358;SDS011;3212;51.460;11.868;2023-04-24T15:21:35;4.97;;;0.60;;
6358;SDS011;3212;51.460;11.868;2023-04-24T15:24:56;1.03;;;0.67;;
6358;SDS011;3212;51.460;11.868;2023-04-24T15:28:18;1.83;;;0.70;;
6358;SDS011;3212;51.460;11.868;2023-04-24T15:31:40;1.43;;;0.67;;
6358;SDS011;3212;51.460;11.868;2023-04-24T15:35:03;2.20;;;0.70;;
6358;SDS011;3212;51.460;11.868;2023-04-24T15:38:25;0.60;;;0.50;;
6358;SDS011;3212;51.460;11.868;2023-04-24T15:41:48;0.70;;;0.60;;
6358;SDS011;3212;51.460;11.868;2023-04-24T15:45:10;3.13;;;0.60;;
6358;SDS011;3212;51.460;11.868;2023-04-24T15:48:32;0.80;;;0.60;;
6358;SDS011;3212;51.460;11.868;2023-04-24T15:51:54;0.83;;;0.57;;
6358;SDS011;3212;51.460;11.868;2023-04-24T15:55:17;1.00;;;0.70;;
6358;SDS011;3212;51.460;11.868;2023-04-24T15:58:40;1.10;;;0.50;;
6358;SDS011;3212;51.460;11.868;2023-04-24T16:02:01;2.80;;;0.67;;
6358;SDS011;3212;51.460;11.868;2023-04-24T16:05:23;1.70;;;0.80;;
6358;SDS011;3212;51.460;11.868;2023-04-24T16:08:46;0.90;;;0.63;;
6358;SDS011;3212;51.460;11.868;2023-04-24T16:12:08;1.80;;;0.80;;
6358;SDS011;3212;51.460;11.868;2023-04-24T16:15:30;0.68;;;0.68;;
6358;SDS011;3212;51.460;11.868;2023-04-24T16:18:52;0.70;;;0.70;;
6358;SDS011;3212;51.460;11.868;2023-04-24T16:22:17;0.70;;;0.70;;
6358;SDS011;3212;51.460;11.868;2023-04-24T16:25:39;1.43;;;0.87;;
6358;SDS011;3212;51.460;11.868;2023-04-24T16:29:01;0.90;;;0.90;;
6358;SDS011;3212;51.460;11.868;2023-04-24T16:32:23;1.30;;;0.90;;
6358;SDS011;3212;51.460;11.868;2023-04-24T16:35:45;0.80;;;0.80;;
6358;SDS011;3212;51.460;11.868;2023-04-24T16:39:07;0.80;;;0.80;;
6358;SDS011;3212;51.460;11.868;2023-04-24T16:42:29;0.83;;;0.80;;
6358;SDS011;3212;51.460;11.868;2023-04-24T16:45:52;1.57;;;0.90;;
6358;SDS011;3212;51.460;11.868;2023-04-24T16:49:15;1.10;;;0.90;;
6358;SDS011;3212;51.460;11.868;2023-04-24T16:52:37;1.10;;;0.80;;
6358;SDS011;3212;51.460;11.868;2023-04-24T16:55:59;0.80;;;0.80;;
6358;SDS011;3212;51.460;11.868;2023-04-24T16:59:21;1.00;;;0.90;;
6358;SDS011;3212;51.460;11.868;2023-04-24T17:02:43;1.20;;;1.10;;
6358;SDS011;3212;51.460;11.868;2023-04-24T17:06:05;1.10;;;1.00;;
6358;SDS011;3212;51.460;11.868;2023-04-24T17:09:29;2.27;;;1.17;;
6358;SDS011;3212;51.460;11.868;2023-04-24T17:12:51;1.20;;;1.03;;
6358;SDS011;3212;51.460;11.868;2023-04-24T17:16:13;1.30;;;1.20;;
6358;SDS011;3212;51.460;11.868;2023-04-24T17:19:36;0.90;;;0.90;;
6358;SDS011;3212;51.460;11.868;2023-04-24T17:22:59;1.03;;;1.00;;
6358;SDS011;3212;51.460;11.868;2023-04-24T17:26:22;2.63;;;1.67;;
6358;SDS011;3212;51.460;11.868;2023-04-24T17:29:44;3.00;;;1.53;;
6358;SDS011;3212;51.460;11.868;2023-04-24T17:33:07;1.60;;;1.50;;
6358;SDS011;3212;51.460;11.868;2023-04-24T17:36:29;1.63;;;1.53;;
6358;SDS011;3212;51.460;11.868;2023-04-24T17:39:51;1.63;;;1.40;;
6358;SDS011;3212;51.460;11.868;2023-04-24T17:43:13;1.77;;;1.67;;
6358;SDS011;3212;51.460;11.868;2023-04-24T17:46:35;2.03;;;1.53;;
6358;SDS011;3212;51.460;11.868;2023-04-24T17:49:57;2.50;;;2.30;;
6358;SDS011;3212;51.460;11.868;2023-04-24T17:53:19;2.00;;;1.70;;
6358;SDS011;3212;51.460;11.868;2023-04-24T17:56:41;3.30;;;2.03;;
6358;SDS011;3212;51.460;11.868;2023-04-24T18:00:04;3.17;;;2.40;;
6358;SDS011;3212;51.460;11.868;2023-04-24T18:03:27;2.47;;;2.27;;
6358;SDS011;3212;51.460;11.868;2023-04-24T18:06:49;3.10;;;2.47;;
6358;SDS011;3212;51.460;11.868;2023-04-24T18:10:12;3.13;;;2.37;;
6358;SDS011;3212;51.460;11.868;2023-04-24T18:13:34;2.70;;;2.40;;
6358;SDS011;3212;51.460;11.868;2023-04-24T18:16:56;3.77;;;2.90;;
6358;SDS011;3212;51.460;11.868;2023-04-24T18:20:18;4.10;;;3.35;;
6358;SDS011;3212;51.460;11.868;2023-04-24T18:23:42;4.03;;;3.40;;
6358;SDS011;3212;51.460;11.868;2023-04-24T18:27:04;11.27;;;7.17;;
6358;SDS011;3212;51.460;11.868;2023-04-24T18:30:26;6.57;;;4.70;;
6358;SDS011;3212;51.460;11.868;2023-04-24T18:33:48;11.10;;;5.60;;
6358;SDS011;3212;51.460;11.868;2023-04-24T18:37:10;16.43;;;8.60;;
6358;SDS011;3212;51.460;11.868;2023-04-24T18:40:33;17.10;;;10.07;;
6358;SDS011;3212;51.460;11.868;2023-04-24T18:43:55;15.63;;;9.80;;
6358;SDS011;3212;51.460;11.868;2023-04-24T18:47:17;5.77;;;3.30;;
6358;SDS011;3212;51.460;11.868;2023-04-24T18:50:40;3.60;;;2.90;;
6358;SDS011;3212;51.460;11.868;2023-04-24T18:54:03;4.07;;;3.30;;
6358;SDS011;3212;51.460;11.868;2023-04-24T18:57:25;3.10;;;2.80;;
6358;SDS011;3212;51.460;11.868;2023-04-24T19:00:47;4.93;;;2.80;;
6358;SDS011;3212;51.460;11.868;2023-04-24T19:04:10;6.73;;;3.10;;
6358;SDS011;3212;51.460;11.868;2023-04-24T19:07:32;4.00;;;3.40;;
6358;SDS011;3212;51.460;11.868;2023-04-24T19:10:54;3.83;;;3.10;;
6358;SDS011;3212;51.460;11.868;2023-04-24T19:14:17;6.17;;;4.23;;
6358;SDS011;3212;51.460;11.868;2023-04-24T19:17:40;12.90;;;6.90;;
6358;SDS011;3212;51.460;11.868;2023-04-24T19:21:02;7.70;;;5.50;;
6358;SDS011;3212;51.460;11.868;2023-04-24T19:24:23;9.07;;;5.43;;
6358;SDS011;3212;51.460;11.868;2023-04-24T19:27:45;6.03;;;4.50;;
6358;SDS011;3212;51.460;11.868;2023-04-24T19:31:07;8.13;;;4.47;;
6358;SDS011;3212;51.460;11.868;2023-04-24T19:34:30;7.70;;;5.27;;
6358;SDS011;3212;51.460;11.868;2023-04-24T19:37:52;6.43;;;4.73;;
6358;SDS011;3212;51.460;11.868;2023-04-24T19:41:13;7.70;;;5.20;;
6358;SDS011;3212;51.460;11.868;2023-04-24T19:44:36;9.47;;;5.77;;
6358;SDS011;3212;51.460;11.868;2023-04-24T19:47:58;8.67;;;5.00;;
6358;SDS011;3212;51.460;11.868;2023-04-24T19:51:20;7.23;;;4.70;;
6358;SDS011;3212;51.460;11.868;2023-04-24T19:54:42;9.57;;;6.07;;
6358;SDS011;3212;51.460;11.868;2023-04-24T19:58:04;9.50;;;5.17;;
6358;SDS011;3212;51.460;11.868;2023-04-24T20:01:26;10.00;;;5.40;;
6358;SDS011;3212;51.460;11.868;2023-04-24T20:04:49;12.13;;;6.47;;
6358;SDS011;3212;51.460;11.868;2023-04-24T20:08:11;7.30;;;4.77;;
6358;SDS011;3212;51.460;11.868;2023-04-24T20:11:33;9.40;;;5.03;;
6358;SDS011;3212;51.460;11.868;2023-04-24T20:14:55;9.90;;;6.10;;
6358;SDS011;3212;51.460;11.868;2023-04-24T20:18:17;9.90;;;5.90;;
6358;SDS011;3212;51.460;11.868;2023-04-24T20:21:40;10.30;;;5.80;;
6358;SDS011;3212;51.460;11.868;2023-04-24T20:25:02;6.30;;;4.40;;
6358;SDS011;3212;51.460;11.868;2023-04-24T20:28:29;7.07;;;4.13;;
6358;SDS011;3212;51.460;11.868;2023-04-24T20:31:51;5.03;;;3.70;;
6358;SDS011;3212;51.460;11.868;2023-04-24T20:35:13;7.17;;;4.67;;
6358;SDS011;3212;51.460;11.868;2023-04-24T20:38:35;5.90;;;4.60;;
6358;SDS011;3212;51.460;11.868;2023-04-24T20:41:57;24.57;;;9.17;;
6358;SDS011;3212;51.460;11.868;2023-04-24T20:45:19;11.27;;;6.00;;
6358;SDS011;3212;51.460;11.868;2023-04-24T20:48:41;10.37;;;5.97;;
6358;SDS011;3212;51.460;11.868;2023-04-24T20:52:03;7.27;;;4.73;;